METAR Data
IDs: Format: Raw Decoded Include TAF

Data at: 1019 UTC 18 Jan 2022

K9D7 181015Z AUTO 14005KT 4SM BR OVC003 M06/M06 A2940 RMK AO2 TSNO
K9D7 180855Z AUTO 14015KT 4SM BR OVC003 M07/M07 A2941 RMK AO2 TSNO
K9D7 180835Z AUTO 13011KT 3SM BR OVC003 M07/M07 A2943 RMK AO2 TSNO
K9D7 180755Z AUTO 13015KT 2 1/2SM BR OVC002 M07/M07 A2946 RMK AO2 TSNO
K9D7 180555Z AUTO 13012G18KT 5SM BR OVC003 M08/M08 A2956 RMK AO2 TSNO
K9D7 180435Z AUTO 13010KT 10SM OVC005 M08/M08 A2963 RMK AO2 TSNO
K9D7 180355Z AUTO 13012KT 10SM OVC007 M09/M09 A2964 RMK AO2 TSNO
K9D7 180335Z AUTO 13011KT 10SM BKN008 OVC014 M09/M08 A2966 RMK AO2 TSNO
K9D7 180315Z AUTO 13012KT 10SM OVC014 M08/M08 A2967 RMK AO2 TSNO
K9D7 180255Z AUTO 12011G16KT 10SM SCT014 BKN055 OVC065 M08/M08 A2969 RMK AO2 TSNO
K9D7 180235Z AUTO 12015KT 1 3/4SM -SN FEW009 BKN032 OVC080 M08/M08 A2969 RMK AO2 TSNO
K9D7 180215Z AUTO 12013KT 9SM BKN032 OVC042 M08/M08 A2970 RMK AO2 TSNO
K9D7 180155Z AUTO 11011KT 10SM SCT036 BKN042 OVC070 M08/M08 A2972 RMK AO2 TSNO
K9D7 180135Z AUTO 12010KT 10SM OVC070 M08/M08 A2973 RMK AO2 TSNO
K9D7 180055Z AUTO 10010KT 10SM OVC080 M08/M08 A2972 RMK AO2 TSNO
K9D7 172355Z AUTO 09009KT 10SM FEW043 OVC070 M08/M08 A2975 RMK AO2 TSNO
K9D7 172335Z AUTO 08010KT 10SM OVC070 M08/M08 A2976 RMK AO2 TSNO
K9D7 172255Z AUTO 09010KT 10SM FEW040 OVC070 M08/M08 A2977 RMK AO2 TSNO
K9D7 172235Z AUTO 08008KT 10SM BKN041 OVC070 M08/M08 A2977 RMK AO2 TSNO
K9D7 172155Z AUTO 07009KT 10SM FEW050 OVC075 M08/M08 A2978 RMK AO2 TSNO
K9D7 172135Z AUTO 08011KT 10SM FEW018 BKN050 OVC075 M07/M07 A2978 RMK AO2 TSNO
K9D7 172055Z AUTO 08012KT 10SM OVC017 M07/M07 A2978 RMK AO2 TSNO
K9D7 172015Z AUTO 08010KT 10SM OVC016 M07/M07 A2979 RMK AO2 TSNO
K9D7 171955Z AUTO 08011KT 10SM OVC016 M07/M06 A2979 RMK AO2 TSNO
K9D7 171935Z AUTO 07011KT 10SM OVC015 M06/M06 A2980 RMK AO2 TSNO
K9D7 171915Z AUTO 07009KT 10SM OVC015 M06/M06 A2979 RMK AO2 TSNO
K9D7 171855Z AUTO 08012KT 10SM FEW006 OVC016 M06/M06 A2981 RMK AO2 TSNO
K9D7 171655Z AUTO 05008KT 10SM BKN007 OVC015 M05/M05 A2981 RMK AO2 TSNO
K9D7 171615Z AUTO 04007KT 10SM SCT008 OVC060 M05/M05 A2980 RMK AO2 TSNO
K9D7 171555Z AUTO 05007KT 10SM FEW009 OVC070 M05/M05 A2979 RMK AO2 TSNO
K9D7 171535Z AUTO 04005KT 10SM OVC070 M05/M05 A2979 RMK AO2 TSNO
K9D7 171355Z AUTO 31004KT 10SM OVC075 M06/M06 A2979 RMK AO2 TSNO
K9D7 171255Z AUTO 31004KT 10SM SCT070 OVC085 M06/M06 A2979 RMK AO2 TSNO
K9D7 171155Z AUTO 28007KT 10SM FEW043 SCT050 OVC080 M05/M05 A2979 RMK AO2 TSNO
K9D7 171015Z AUTO 28008KT 10SM SCT047 BKN070 OVC085 M05/M05 A2978 RMK AO2 TSNO
K9D7 170935Z AUTO 26010KT 10SM SCT080 OVC110 M05/M05 A2979 RMK AO2 TSNO
K9D7 170755Z AUTO 27012KT 10SM CLR M06/M06 A2981 RMK AO2 TSNO
K9D7 170655Z AUTO 26013KT 10SM CLR M06/M05 A2982 RMK AO2 TSNO
K9D7 170635Z AUTO 27013KT 10SM CLR M05/M05 A2982 RMK AO2 TSNO
K9D7 170555Z AUTO 26013KT 10SM BKN036 M03/M03 A2984 RMK AO2 TSNO
K9D7 170515Z AUTO 26013KT 10SM FEW013 BKN020 OVC030 M02/M02 A2984 RMK AO2 TSNO
K9D7 170435Z AUTO 26009KT 10SM OVC016 M02/M01 A2986 RMK AO2 TSNO
K9D7 170355Z AUTO 24010KT 10SM FEW010 OVC018 M02/M02 A2985 RMK AO2 TSNO
K9D7 170315Z AUTO 24010KT 9SM BKN010 BKN015 OVC024 M02/M02 A2988 RMK AO2 TSNO
K9D7 170215Z AUTO 24005KT 10SM OVC025 M03/M03 A2991 RMK AO2 TSNO
K9D7 170115Z AUTO 25004KT 10SM FEW023 OVC029 M03/M03 A2991 RMK AO2 TSNO
K9D7 170055Z AUTO 23005KT 10SM BKN024 OVC029 M03/M03 A2991 RMK AO2 TSNO
K9D7 162355Z AUTO 33007KT 10SM OVC026 M02/M02 A2992 RMK AO2 TSNO
K9D7 162335Z AUTO 33010KT 10SM OVC024 M02/M02 A2993 RMK AO2 TSNO
K9D7 162315Z AUTO 29005KT 10SM OVC025 M03/M03 A2993 RMK AO2 TSNO
K9D7 162255Z AUTO 24003KT 10SM OVC026 M03/M03 A2992 RMK AO2 TSNO